Terminal Aerodrome Forecast
Issued by NWS Charleston, WV

Current Version | Previous Version | Graphics & Text | Print | Product List | Glossary On
Versions: 1 2 3 4 5 6 7 8 9 10 11 12 13 14 15 16 17 18 19 20 21 22 23 24 25 26 27
000
FTUS41 KRLX 211500 AAA
TAFBKW
TAF AMD
KBKW 211509Z 2115/2212 24012G18KT P6SM BKN017
      TEMPO 2115/2116 3SM -SHRA
     FM212100 24013G26KT 5SM TSRA BR BKN015CB
     FM212300 26011G22KT P6SM VCTS BKN025CB
     FM220200 31008G15KT P6SM VCTS BKN025CB
     FM220300 32007KT P6SM BKN025
     FM220600 30005KT P6SM BKN035
     FM221100 31005KT 6SM BR BKN008=

USA.gov is the U.S. government's official web portal to all federal, state and local government web resources and services.